Detroit, Michigan
Traffic Map
Current Weather Conditions
Detroit, Michigan
Overcast Light Rain
Overcast

Feels Like: 0°
Wind Chill: Ceiling: 400
Heat Index: Visibility: 5mi
Dew Point: Wind: 10mph
Humidity: 100% Direction: 40° (NE)
Pressure: 29.72in Gusts: 18mph
Raw Report DataCYQG 241000Z 04009G16KT 5SM -RA BR OVC004 04/04 A2972 RMK SC8 TS DIST S LTGIC CB ASOCT PRESFR SLP067
Traffic Incident Summary
Active as of:
Severity:
Category:
InformationThere was an issue retrieving the traffic information for this location. Please try a different location or try again shortly.
Advertisements
Track Severe Weather on mobile